createdAt,value
2023-12-12T00:02:22.463Z,98793.56
2023-12-12T00:04:49.837Z,98791.97
2023-12-12T00:07:17.227Z,98786.06
2023-12-12T00:09:44.541Z,98787.63
2023-12-12T00:12:11.860Z,98787.22
2023-12-12T00:14:39.258Z,98793.53
2023-12-12T00:17:06.625Z,98783.66
2023-12-12T00:19:34.041Z,98782.50
2023-12-12T00:22:01.395Z,98785.66
2023-12-12T00:24:28.690Z,98781.69
2023-12-12T00:26:56.020Z,98787.97
2023-12-12T00:29:23.336Z,98782.44
2023-12-12T00:31:50.687Z,98781.66
2023-12-12T00:34:18.039Z,98780.44
2023-12-12T00:36:45.706Z,98768.22
2023-12-12T00:39:13.043Z,98775.28
2023-12-12T00:41:40.354Z,98779.59
2023-12-12T00:44:07.649Z,98766.56
2023-12-12T00:46:36.570Z,98764.16
2023-12-12T00:49:04.036Z,98773.59
2023-12-12T00:51:31.830Z,98764.91
2023-12-12T00:54:01.073Z,98760.16
2023-12-12T00:56:29.659Z,98755.38
2023-12-12T00:58:56.971Z,98753.41
2023-12-12T01:01:24.391Z,98756.53
2023-12-12T01:03:51.819Z,98762.41
2023-12-12T01:06:27.910Z,98758.44
2023-12-12T01:08:56.746Z,98752.50
2023-12-12T01:11:24.090Z,98751.28
2023-12-12T01:13:51.518Z,98741.00
2023-12-12T01:16:18.918Z,98738.59
2023-12-12T01:18:46.341Z,98736.19
2023-12-12T01:21:13.741Z,98727.91
2023-12-12T01:23:56.411Z,98727.91
2023-12-12T01:26:24.724Z,98720.03
2023-12-12T01:28:52.697Z,98725.56
2023-12-12T01:31:20.469Z,98725.16
2023-12-12T01:33:48.746Z,98719.63
2023-12-12T01:36:16.370Z,98712.53
2023-12-12T01:38:45.717Z,98720.00
2023-12-12T01:41:13.326Z,98716.88
2023-12-12T01:43:40.709Z,98717.28
2023-12-12T01:46:13.046Z,98716.13
2023-12-12T01:48:41.229Z,98712.59
2023-12-12T01:51:08.981Z,98713.03
2023-12-12T01:53:44.511Z,98709.91
2023-12-12T01:56:12.883Z,98700.44
2023-12-12T01:58:44.095Z,98700.09
2023-12-12T02:01:12.940Z,98691.81
2023-12-12T02:03:42.138Z,98699.28
2023-12-12T02:06:12.485Z,98693.78
2023-12-12T02:08:39.996Z,98701.66
2023-12-12T02:11:07.490Z,98701.28
2023-12-12T02:13:34.965Z,98694.59
2023-12-12T02:16:02.971Z,98693.81
2023-12-12T02:18:30.454Z,98687.09
2023-12-12T02:20:57.886Z,98683.19
2023-12-12T02:23:25.184Z,98686.75
2023-12-12T02:25:52.477Z,98670.19
2023-12-12T02:28:19.872Z,98671.75
2023-12-12T02:30:47.155Z,98663.91
2023-12-12T02:33:14.558Z,98673.75
2023-12-12T02:35:42.009Z,98687.56
2023-12-12T02:38:09.472Z,98674.94
2023-12-12T02:40:37.022Z,98677.31
2023-12-12T02:43:04.400Z,98671.00
2023-12-12T02:45:31.731Z,98674.56
2023-12-12T02:47:59.212Z,98674.94
2023-12-12T02:50:26.604Z,98670.19
2023-12-12T02:52:53.903Z,98661.53
2023-12-12T02:55:21.199Z,98659.16
2023-12-12T02:57:48.629Z,98652.06
2023-12-12T03:02:41.832Z,98644.13
2023-12-12T03:05:09.751Z,98643.72
2023-12-12T03:07:40.483Z,98633.47
2023-12-12T03:10:08.509Z,98640.13
2023-12-12T03:12:36.066Z,98632.25
2023-12-12T03:15:05.332Z,98626.72
2023-12-12T03:17:33.090Z,98620.00
2023-12-12T03:20:00.793Z,98613.69
2023-12-12T03:22:28.258Z,98608.53
2023-12-12T03:24:55.730Z,98606.50
2023-12-12T03:27:23.163Z,98619.09
2023-12-12T03:29:50.750Z,98608.44
2023-12-12T03:32:18.130Z,98622.59
2023-12-12T03:34:45.557Z,98617.88
2023-12-12T03:37:14.487Z,98607.22
2023-12-12T03:39:42.651Z,98612.72
2023-12-12T03:42:10.742Z,98609.56
2023-12-12T03:44:38.087Z,98604.41
2023-12-12T03:47:05.394Z,98598.13
2023-12-12T03:49:32.948Z,98604.41
2023-12-12T03:52:00.387Z,98586.31
2023-12-12T03:54:27.747Z,98594.94
2023-12-12T03:56:56.400Z,98589.03
2023-12-12T03:59:23.696Z,98587.03
2023-12-12T04:01:51.435Z,98587.03
2023-12-12T04:04:19.055Z,98578.34
2023-12-12T04:06:48.161Z,98586.22
2023-12-12T04:09:16.498Z,98583.81
2023-12-12T04:11:44.264Z,98584.22
2023-12-12T04:14:11.604Z,98571.59
2023-12-12T04:16:40.535Z,98583.41
2023-12-12T04:19:08.108Z,98579.06
2023-12-12T04:21:35.455Z,98573.56
2023-12-12T04:24:02.779Z,98570.38
2023-12-12T04:26:31.545Z,98569.97
2023-12-12T04:28:58.944Z,98566.44
2023-12-12T04:31:26.525Z,98564.84
2023-12-12T04:33:54.203Z,98560.13
2023-12-12T04:36:22.234Z,98566.44
2023-12-12T04:38:49.725Z,98564.03
2023-12-12T04:41:17.130Z,98570.34
2023-12-12T04:43:45.441Z,98566.38
2023-12-12T04:46:20.520Z,98566.38
2023-12-12T04:48:48.386Z,98569.16
2023-12-12T04:51:15.805Z,98569.94
2023-12-12T04:53:43.160Z,98568.00
2023-12-12T04:56:10.590Z,98564.03
2023-12-12T04:58:38.089Z,98551.47
2023-12-12T05:01:05.650Z,98558.53
2023-12-12T05:03:34.197Z,98558.53
2023-12-12T05:06:02.422Z,98558.53
2023-12-12T05:08:29.945Z,98550.28
2023-12-12T05:10:57.315Z,98557.38
2023-12-12T05:13:24.772Z,98546.72
2023-12-12T05:15:52.483Z,98551.06
2023-12-12T05:18:20.139Z,98555.38
2023-12-12T05:20:47.601Z,98548.28
2023-12-12T05:23:15.094Z,98546.69
2023-12-12T05:25:42.752Z,98538.00
2023-12-12T05:28:10.151Z,98546.25
2023-12-12T05:30:40.117Z,98542.31
2023-12-12T05:33:08.352Z,98543.06
2023-12-12T05:35:35.702Z,98547.72
2023-12-12T05:38:04.733Z,98543.00
2023-12-12T05:40:32.113Z,98543.38
2023-12-12T05:43:00.026Z,98537.06
2023-12-12T05:45:28.008Z,98535.06
2023-12-12T05:47:55.440Z,98528.34
2023-12-12T05:50:22.850Z,98523.94
2023-12-12T05:52:52.060Z,98540.84
2023-12-12T05:55:19.570Z,98515.97
2023-12-12T05:57:46.861Z,98520.25
2023-12-12T06:00:14.543Z,98523.38
2023-12-12T06:02:42.799Z,98527.19
2023-12-12T06:05:11.061Z,98526.34
2023-12-12T06:07:39.697Z,98518.44
2023-12-12T06:10:07.789Z,98524.72
2023-12-12T06:12:35.973Z,98516.03
2023-12-12T06:15:04.180Z,98517.97
2023-12-12T06:17:31.776Z,98511.72
2023-12-12T06:19:59.281Z,98512.06
2023-12-12T06:22:27.036Z,98512.88
2023-12-12T06:24:54.851Z,98525.03
2023-12-12T06:27:25.011Z,98524.25
2023-12-12T06:29:52.827Z,98521.53
2023-12-12T06:32:20.612Z,98518.03
2023-12-12T06:34:48.158Z,98519.28
2023-12-12T06:37:15.895Z,98524.44
2023-12-12T06:39:43.329Z,98526.44
2023-12-12T06:42:10.894Z,98524.53
2023-12-12T06:44:38.345Z,98517.47
2023-12-12T06:47:05.725Z,98513.16
2023-12-12T06:49:33.650Z,98516.34
2023-12-12T06:52:02.970Z,98517.91
2023-12-12T06:54:30.431Z,98519.50
2023-12-12T06:56:58.783Z,98519.50
2023-12-12T06:59:26.143Z,98517.50
2023-12-12T07:01:53.830Z,98514.34
2023-12-12T07:04:22.931Z,98507.59
2023-12-12T07:06:50.480Z,98509.84
2023-12-12T07:09:18.069Z,98513.72
2023-12-12T07:14:30.300Z,98513.59
2023-12-12T07:16:58.103Z,98509.94
2023-12-12T07:19:25.919Z,98505.56
2023-12-12T07:21:54.497Z,98511.03
2023-12-12T07:24:24.469Z,98502.38
2023-12-12T07:26:52.197Z,98511.78
2023-12-12T07:29:21.485Z,98512.56
2023-12-12T07:31:49.439Z,98518.88
2023-12-12T07:34:17.410Z,98519.72
2023-12-12T07:36:47.028Z,98526.41
2023-12-12T07:39:16.440Z,98526.84
2023-12-12T07:41:45.272Z,98524.88
2023-12-12T07:44:13.831Z,98515.03
2023-12-12T07:46:42.933Z,98527.25
2023-12-12T07:49:10.867Z,98528.44
2023-12-12T07:51:39.044Z,98526.78
2023-12-12T07:54:07.927Z,98529.13
2023-12-12T07:56:35.302Z,98531.47
2023-12-12T07:59:02.662Z,98529.13
2023-12-12T08:01:31.138Z,98522.41
2023-12-12T08:03:58.813Z,98525.16
2023-12-12T08:06:28.423Z,98522.03
2023-12-12T08:08:56.209Z,98521.25
2023-12-12T08:11:26.041Z,98524.38
2023-12-12T08:13:53.497Z,98519.66
2023-12-12T08:16:21.275Z,98526.69
2023-12-12T08:18:48.668Z,98521.94
2023-12-12T08:21:16.191Z,98522.69
2023-12-12T08:23:43.809Z,98521.88
2023-12-12T08:26:11.998Z,98518.69
2023-12-12T08:28:39.655Z,98523.41
2023-12-12T08:31:07.780Z,98522.53
2023-12-12T08:33:35.433Z,98531.06
2023-12-12T08:36:04.080Z,98527.06
2023-12-12T08:38:31.471Z,98536.47
2023-12-12T08:40:59.345Z,98534.91
2023-12-12T08:43:26.827Z,98534.09
2023-12-12T08:45:55.951Z,98539.59
2023-12-12T08:48:25.049Z,98540.75
2023-12-12T08:50:52.972Z,98533.66
2023-12-12T08:53:28.082Z,98531.63
2023-12-12T08:55:56.723Z,98522.91
2023-12-12T08:58:26.805Z,98527.59
2023-12-12T09:00:55.540Z,98519.41
2023-12-12T09:03:23.263Z,98515.13
2023-12-12T09:05:50.818Z,98515.13
2023-12-12T09:08:18.469Z,98518.28
2023-12-12T09:10:46.021Z,98516.72
2023-12-12T09:13:13.660Z,98517.16
2023-12-12T09:15:40.986Z,98514.41
2023-12-12T09:18:18.603Z,98523.84
2023-12-12T09:20:49.318Z,98523.91
2023-12-12T09:23:17.802Z,98523.16
2023-12-12T09:25:45.208Z,98522.41
2023-12-12T09:28:12.867Z,98518.56
2023-12-12T09:30:40.463Z,98522.53
2023-12-12T09:33:07.928Z,98519.44
2023-12-12T09:35:38.870Z,98527.38
2023-12-12T09:38:06.595Z,98528.97
2023-12-12T09:40:37.147Z,98528.28
2023-12-12T09:43:05.949Z,98529.91
2023-12-12T09:45:34.102Z,98527.22
2023-12-12T09:48:02.747Z,98529.19
2023-12-12T09:50:32.009Z,98526.09
2023-12-12T09:53:01.198Z,98537.91
2023-12-12T09:55:30.097Z,98535.25
2023-12-12T09:57:58.013Z,98534.13
2023-12-12T10:00:25.901Z,98538.13
2023-12-12T10:02:58.920Z,98536.59
2023-12-12T10:05:29.457Z,98539.75
2023-12-12T10:08:04.562Z,98540.97
2023-12-12T10:10:36.061Z,98550.09
2023-12-12T10:13:04.260Z,98547.84
2023-12-12T10:15:32.449Z,98558.16
2023-12-12T10:18:01.955Z,98553.53
2023-12-12T10:20:31.469Z,98544.16
2023-12-12T10:23:02.651Z,98547.41
2023-12-12T10:25:32.034Z,98549.81
2023-12-12T10:28:00.685Z,98555.78
2023-12-12T10:30:28.802Z,98548.31
2023-12-12T10:32:57.297Z,98547.91
2023-12-12T10:35:27.319Z,98550.66
2023-12-12T10:37:55.044Z,98555.44
2023-12-12T10:40:24.257Z,98547.16
2023-12-12T10:42:53.407Z,98558.56
2023-12-12T10:45:24.894Z,98556.19
2023-12-12T10:47:55.330Z,98556.19
2023-12-12T10:50:24.956Z,98547.50
2023-12-12T10:52:55.673Z,98557.78
2023-12-12T10:55:26.194Z,98554.66
2023-12-12T10:57:56.852Z,98561.00
2023-12-12T11:00:25.452Z,98568.09
2023-12-12T11:02:54.175Z,98569.72
2023-12-12T11:05:23.707Z,98562.72
2023-12-12T11:07:53.179Z,98566.28
2023-12-12T11:10:23.956Z,98572.22
2023-12-12T11:13:00.264Z,98571.84
2023-12-12T11:15:29.263Z,98577.03
2023-12-12T11:17:58.253Z,98575.09
2023-12-12T11:20:26.455Z,98574.72
2023-12-12T11:22:54.876Z,98568.09
2023-12-12T11:25:23.835Z,98570.84
2023-12-12T11:27:53.904Z,98567.31
2023-12-12T11:30:30.867Z,98568.91
2023-12-12T11:32:58.402Z,98561.84
2023-12-12T11:35:34.833Z,98557.50
2023-12-12T11:38:06.416Z,98558.28
2023-12-12T11:40:35.617Z,98561.84
2023-12-12T11:43:24.922Z,98560.69
2023-12-12T11:45:53.786Z,98569.00
2023-12-12T11:48:21.464Z,98563.06
2023-12-12T11:50:49.005Z,98570.97
2023-12-12T11:53:39.406Z,98571.75
2023-12-12T11:56:06.971Z,98561.16
2023-12-12T11:58:35.748Z,98567.09
2023-12-12T12:01:03.253Z,98571.84
2023-12-12T12:03:30.629Z,98569.91
2023-12-12T12:05:58.205Z,98568.75
2023-12-12T12:08:27.053Z,98564.81
2023-12-12T12:10:58.862Z,98564.03
2023-12-12T12:13:39.106Z,98563.28
2023-12-12T12:16:07.570Z,98564.88
2023-12-12T12:18:35.351Z,98562.88
2023-12-12T12:21:09.111Z,98567.22
2023-12-12T12:23:39.364Z,98563.31
2023-12-12T12:26:07.229Z,98564.88
2023-12-12T12:28:36.268Z,98571.19
2023-12-12T12:31:07.102Z,98561.34
2023-12-12T12:33:37.566Z,98556.22
2023-12-12T12:36:06.570Z,98558.56
2023-12-12T12:38:34.245Z,98562.94
2023-12-12T12:41:01.655Z,98566.88
2023-12-12T12:43:29.866Z,98578.31
2023-12-12T12:45:59.298Z,98574.38
2023-12-12T12:48:31.117Z,98576.75
2023-12-12T12:50:59.155Z,98576.75
2023-12-12T12:53:27.668Z,98578.72
2023-12-12T12:55:55.663Z,98573.19
2023-12-12T12:58:24.116Z,98578.34
2023-12-12T13:00:51.651Z,98577.53
2023-12-12T13:03:19.165Z,98584.28
2023-12-12T13:05:48.418Z,98583.09
2023-12-12T13:08:16.506Z,98586.25
2023-12-12T13:10:50.366Z,98575.63
2023-12-12T13:13:21.507Z,98582.72
2023-12-12T13:15:49.843Z,98580.75
2023-12-12T13:18:19.441Z,98583.53
2023-12-12T13:20:48.536Z,98583.53
2023-12-12T13:23:17.145Z,98587.47
2023-12-12T13:25:44.993Z,98579.16
2023-12-12T13:28:12.522Z,98578.34
2023-12-12T13:30:39.967Z,98582.28
2023-12-12T13:33:10.847Z,98582.28
2023-12-12T13:35:38.698Z,98579.94
2023-12-12T13:38:06.379Z,98586.63
2023-12-12T13:40:34.241Z,98585.06
2023-12-12T13:43:02.005Z,98587.81
2023-12-12T13:45:29.646Z,98585.81
2023-12-12T13:47:57.037Z,98590.16
2023-12-12T13:50:24.442Z,98588.22
2023-12-12T13:52:54.242Z,98579.91
2023-12-12T13:55:23.131Z,98583.84
2023-12-12T13:57:50.800Z,98580.25
2023-12-12T14:00:19.640Z,98579.47
2023-12-12T14:02:47.138Z,98583.78
2023-12-12T14:05:14.795Z,98586.16
2023-12-12T14:07:42.557Z,98582.19
2023-12-12T14:10:11.552Z,98584.94
2023-12-12T14:12:39.094Z,98580.56
2023-12-12T14:15:07.360Z,98587.63
2023-12-12T14:17:34.858Z,98589.16
2023-12-12T14:20:02.524Z,98592.28
2023-12-12T14:22:32.661Z,98600.16
2023-12-12T14:25:01.244Z,98593.06
2023-12-12T14:27:28.596Z,98599.00
2023-12-12T14:29:56.194Z,98609.63
2023-12-12T14:32:23.540Z,98599.00
2023-12-12T14:34:50.893Z,98592.31
2023-12-12T14:37:19.038Z,98604.16
2023-12-12T14:39:46.377Z,98600.97
2023-12-12T14:42:13.726Z,98598.19
2023-12-12T14:44:42.953Z,98604.50
2023-12-12T14:47:11.360Z,98604.47
2023-12-12T14:49:38.934Z,98604.84
2023-12-12T14:52:06.557Z,98604.84
2023-12-12T14:54:33.987Z,98596.97
2023-12-12T14:57:06.576Z,98607.22
2023-12-12T14:59:42.528Z,98603.28
2023-12-12T15:02:11.004Z,98606.44
2023-12-12T15:04:38.485Z,98609.19
2023-12-12T15:07:05.931Z,98611.19
2023-12-12T15:09:33.333Z,98616.72
2023-12-12T15:12:00.689Z,98620.66
2023-12-12T15:14:28.091Z,98612.78
2023-12-12T15:16:55.917Z,98616.75
2023-12-12T15:19:23.388Z,98614.75
2023-12-12T15:21:51.479Z,98612.00
2023-12-12T15:24:18.960Z,98624.63
2023-12-12T15:26:46.383Z,98622.25
2023-12-12T15:29:13.925Z,98622.25
2023-12-12T15:31:41.603Z,98632.50
2023-12-12T15:34:09.203Z,98636.44
2023-12-12T15:36:36.746Z,98640.38
2023-12-12T15:39:04.549Z,98635.63
2023-12-12T15:41:32.459Z,98642.31
2023-12-12T15:44:00.961Z,98645.06
2023-12-12T15:46:28.498Z,98647.41
2023-12-12T15:48:55.936Z,98645.81
2023-12-12T15:51:23.962Z,98648.19
2023-12-12T15:53:51.564Z,98641.88
2023-12-12T15:56:18.919Z,98648.94
2023-12-12T15:58:48.795Z,98652.84
2023-12-12T16:01:16.368Z,98658.31
2023-12-12T16:03:44.381Z,98666.19
2023-12-12T16:06:12.132Z,98666.19
2023-12-12T16:08:40.088Z,98673.63
2023-12-12T16:11:07.655Z,98678.75
2023-12-12T16:13:37.495Z,98681.09
2023-12-12T16:16:05.620Z,98683.47
2023-12-12T16:18:33.165Z,98688.22
2023-12-12T16:21:01.343Z,98686.59
2023-12-12T16:23:28.704Z,98696.84
2023-12-12T16:25:56.096Z,98697.63
2023-12-12T16:28:24.659Z,98701.56
2023-12-12T16:30:54.142Z,98701.56
2023-12-12T16:33:21.586Z,98700.00
2023-12-12T16:35:50.161Z,98702.34
2023-12-12T16:38:19.763Z,98713.38
2023-12-12T16:40:47.791Z,98707.88
2023-12-12T16:43:16.178Z,98711.81
2023-12-12T16:45:44.380Z,98713.78
2023-12-12T16:48:13.313Z,98715.72
2023-12-12T16:50:40.964Z,98719.28
2023-12-12T16:53:11.375Z,98728.31
2023-12-12T16:55:40.022Z,98732.22
2023-12-12T16:58:08.880Z,98727.47
2023-12-12T17:00:36.513Z,98727.47
2023-12-12T17:03:05.252Z,98738.50
2023-12-12T17:05:34.101Z,98737.72
2023-12-12T17:08:03.831Z,98743.25
2023-12-12T17:10:32.667Z,98746.00
2023-12-12T17:13:02.842Z,98746.38
2023-12-12T17:15:30.261Z,98745.53
2023-12-12T17:17:57.806Z,98748.69
2023-12-12T17:20:25.354Z,98750.22
2023-12-12T17:22:52.704Z,98755.75
2023-12-12T17:25:20.116Z,98769.88
2023-12-12T17:27:47.540Z,98773.84
2023-12-12T17:30:15.512Z,98764.75
2023-12-12T17:32:45.416Z,98772.22
2023-12-12T17:35:13.718Z,98773.41
2023-12-12T17:37:42.676Z,98786.00
2023-12-12T17:40:11.777Z,98784.44
2023-12-12T17:42:40.585Z,98779.34
2023-12-12T17:45:09.573Z,98788.78
2023-12-12T17:47:39.770Z,98798.22
2023-12-12T17:50:09.502Z,98799.78
2023-12-12T17:52:37.307Z,98819.50
2023-12-12T17:55:06.351Z,98805.72
2023-12-12T17:57:34.206Z,98816.75
2023-12-12T18:00:02.729Z,98821.09
2023-12-12T18:02:30.295Z,98830.53
2023-12-12T18:04:59.378Z,98824.59
2023-12-12T18:07:28.062Z,98827.38
2023-12-12T18:09:55.482Z,98838.38
2023-12-12T18:12:22.920Z,98839.19
2023-12-12T18:14:50.249Z,98840.34
2023-12-12T18:17:17.597Z,98852.16
2023-12-12T18:19:45.187Z,98856.13
2023-12-12T18:22:13.278Z,98853.34
2023-12-12T18:24:41.620Z,98857.28
2023-12-12T18:27:09.165Z,98861.19
2023-12-12T18:29:36.574Z,98864.75
2023-12-12T18:32:05.715Z,98863.53
2023-12-12T18:34:33.288Z,98878.50
2023-12-12T18:37:01.820Z,98882.41
2023-12-12T18:39:29.264Z,98880.00
2023-12-12T18:41:57.355Z,98880.00
2023-12-12T18:44:24.665Z,98887.13
2023-12-12T18:46:52.868Z,98890.25
2023-12-12T18:49:20.386Z,98893.44
2023-12-12T18:51:47.840Z,98898.94
2023-12-12T18:54:15.170Z,98897.78
2023-12-12T18:56:44.983Z,98902.84
2023-12-12T18:59:12.508Z,98910.78
2023-12-12T19:01:42.150Z,98911.56
2023-12-12T19:04:11.339Z,98918.66
2023-12-12T19:06:38.738Z,98914.31
2023-12-12T19:09:06.121Z,98917.09
2023-12-12T19:11:38.406Z,98928.09
2023-12-12T19:14:07.040Z,98918.25
2023-12-12T19:16:36.537Z,98919.78
2023-12-12T19:19:04.571Z,98928.06
2023-12-12T19:21:33.545Z,98933.91
2023-12-12T19:24:02.115Z,98931.16
2023-12-12T19:26:30.457Z,98947.69
2023-12-12T19:28:58.620Z,98948.50
2023-12-12T19:31:26.751Z,98952.44
2023-12-12T19:33:54.557Z,98959.53
2023-12-12T19:36:22.252Z,98954.00
2023-12-12T19:38:49.746Z,98955.19
2023-12-12T19:41:18.254Z,98964.22
2023-12-12T19:43:46.263Z,98965.03
2023-12-12T19:46:14.049Z,98962.66
2023-12-12T19:48:41.845Z,98968.97
2023-12-12T19:51:09.640Z,98968.97
2023-12-12T19:53:37.079Z,98980.78
2023-12-12T19:56:04.621Z,98974.84
2023-12-12T19:58:32.037Z,98983.09
2023-12-12T20:00:59.559Z,98990.97
2023-12-12T20:03:29.291Z,98998.00
2023-12-12T20:05:57.096Z,98997.22
2023-12-12T20:08:24.556Z,98992.84
2023-12-12T20:10:54.085Z,99005.06
2023-12-12T20:13:21.512Z,99010.56
2023-12-12T20:15:51.920Z,99015.28
2023-12-12T20:18:20.300Z,99028.66
2023-12-12T20:20:47.677Z,99030.28
2023-12-12T20:23:15.424Z,99035.00
2023-12-12T20:25:42.918Z,99042.91
2023-12-12T20:28:10.439Z,99056.69
2023-12-12T20:30:39.188Z,99052.31
2023-12-12T20:33:06.636Z,99057.03
2023-12-12T20:35:33.953Z,99072.00
2023-12-12T20:38:01.557Z,99079.47
2023-12-12T20:40:28.932Z,99093.25
2023-12-12T20:42:56.320Z,99087.34
2023-12-12T20:45:23.665Z,99100.31
2023-12-12T20:47:51.004Z,99090.47
2023-12-12T20:50:20.191Z,99104.25
2023-12-12T20:52:47.781Z,99102.31
2023-12-12T20:55:19.272Z,99108.59
2023-12-12T20:57:46.801Z,99106.63
2023-12-12T21:00:15.091Z,99112.53
2023-12-12T21:02:42.606Z,99120.78
2023-12-12T21:05:09.949Z,99120.78
2023-12-12T21:07:37.636Z,99123.13
2023-12-12T21:10:05.370Z,99127.03
2023-12-12T21:12:32.740Z,99135.69
2023-12-12T21:15:00.170Z,99134.88
2023-12-12T21:17:27.728Z,99138.78
2023-12-12T21:19:55.038Z,99141.53
2023-12-12T21:22:22.400Z,99134.47
2023-12-12T21:24:49.856Z,99134.47
2023-12-12T21:27:17.140Z,99145.09
2023-12-12T21:29:44.462Z,99143.16
2023-12-12T21:32:12.162Z,99149.38
2023-12-12T21:34:39.614Z,99146.97
2023-12-12T21:37:07.744Z,99154.41
2023-12-12T21:39:35.073Z,99165.34
2023-12-12T21:42:02.406Z,99175.59
2023-12-12T21:44:29.863Z,99174.34
2023-12-12T21:46:58.321Z,99174.78
2023-12-12T21:49:25.914Z,99196.81
2023-12-12T21:51:53.316Z,99188.91
2023-12-12T21:54:20.674Z,99197.16
2023-12-12T21:56:51.056Z,99204.28
2023-12-12T21:59:18.470Z,99203.06
2023-12-12T22:01:49.521Z,99207.78
2023-12-12T22:04:17.208Z,99213.28
2023-12-12T22:06:44.559Z,99236.94
2023-12-12T22:09:12.378Z,99232.19
2023-12-12T22:11:39.743Z,99230.63
2023-12-12T22:14:07.212Z,99236.13
2023-12-12T22:16:34.586Z,99236.13
2023-12-12T22:19:04.251Z,99232.56
2023-12-12T22:21:37.651Z,99237.28
2023-12-12T22:24:05.408Z,99240.81
2023-12-12T22:26:32.717Z,99232.94
2023-12-12T22:29:03.492Z,99248.66
2023-12-12T22:31:31.188Z,99249.38
2023-12-12T22:33:58.622Z,99246.63
2023-12-12T22:36:25.941Z,99258.44
2023-12-12T22:38:54.634Z,99254.09
2023-12-12T22:41:22.059Z,99261.94
2023-12-12T22:43:49.733Z,99264.25
2023-12-12T22:46:21.194Z,99271.34
2023-12-12T22:48:51.723Z,99275.28
2023-12-12T22:51:24.445Z,99271.28
2023-12-12T22:53:51.966Z,99278.75
2023-12-12T22:56:23.341Z,99281.50
2023-12-12T22:58:51.513Z,99301.91
2023-12-12T23:01:19.052Z,99303.09
2023-12-12T23:03:48.859Z,99306.63
2023-12-12T23:06:16.389Z,99300.34
2023-12-12T23:08:43.771Z,99306.63
2023-12-12T23:11:11.955Z,99309.75
2023-12-12T23:13:39.443Z,99309.75
2023-12-12T23:16:07.166Z,99312.50
2023-12-12T23:18:34.458Z,99315.63
2023-12-12T23:21:03.311Z,99329.41
2023-12-12T23:23:30.846Z,99317.59
2023-12-12T23:25:58.147Z,99330.97
2023-12-12T23:28:26.082Z,99352.69
2023-12-12T23:31:01.464Z,99337.31
2023-12-12T23:33:38.180Z,99347.06
2023-12-12T23:36:06.025Z,99351.44
2023-12-12T23:38:33.462Z,99355.34
2023-12-12T23:41:01.731Z,99360.03
2023-12-12T23:43:29.199Z,99361.19
2023-12-12T23:45:56.632Z,99363.16
2023-12-12T23:48:23.982Z,99367.88
2023-12-12T23:50:51.367Z,99363.50
2023-12-12T23:53:18.643Z,99371.78
2023-12-12T23:55:46.035Z,99376.13
2023-12-12T23:58:13.421Z,99374.97
